Dades meteomassalio
Diari Summary for Juliol 10, 2017 Units:  English    Metric   Both
« Previous Day
Next Day »
Diari Semanal Mensual Anual Personalitzat
  Maxima: Minima: Mijana:
Temperatura: TemperatureC °F 19.6 °F 25 °F
Rosada: DewpointC °F 15.8 °F 18.3 °F
Humitat: Humidity % 50 % 67 %
Velocitat del vent: WindSpeedKMH mph 0.0 mph 6.5 mph
Racha vent: WindSpeedGustKMH mph - -
Vent:- - SSE
Pressio: PressurehPa in 1009.0 in -
Pluja: 0.0 in    
Historical Graphs
 
 
Tabular Data for Juliol 10, 2017
Time Temperature Dew Point Pressure Wind Wind Speed Wind Gust Humidity Rainfall Rate (Hourly) solar Conditions
TemperatureC °F DewpointC °F PressurehPa in Calm     Humidity % HourlyPrecipMM in SolarRadiationWatts/m^2 W/m2 Conditions
00:03 24.2 °F 16.2 °F 1011.7 in Calm     61 % 0.0 in 0.0 W/m2 CLR
00:08 24.1 °F 15.8 °F 1011.7 in Calm     60 % 0.0 in 0.0 W/m2 CLR
00:13 24.1 °F 16.1 °F 1011.7 in Calm     61 % 0.0 in 0.0 W/m2 CLR
00:18 23.9 °F 15.9 °F 1011.7 in Calm     61 % 0.0 in 0.0 W/m2 CLR
00:23 23.8 °F 16.8 °F 1011.7 in Calm     65 % 0.0 in 0.0 W/m2 CLR
00:28 23.6 °F 16.3 °F 1011.7 in Calm     64 % 0.0 in 0.0 W/m2 CLR
00:33 23.4 °F 16.2 °F 1011.7 in Calm     64 % 0.0 in 0.0 W/m2 CLR
00:38 23.2 °F 16.2 °F 1011.7 in Calm     65 % 0.0 in 0.0 W/m2 CLR
00:43 23.0 °F 16.6 °F 1011.7 in Calm     67 % 0.0 in 0.0 W/m2 CLR
00:48 22.9 °F 16.9 °F 1011.7 in Calm     69 % 0.0 in 0.0 W/m2 CLR
00:53 22.7 °F 16.9 °F 1011.7 in Calm     70 % 0.0 in 0.0 W/m2 CLR
00:58 22.4 °F 17.1 °F 1011.7 in Calm     72 % 0.0 in 0.0 W/m2 CLR
01:03 22.1 °F 17.0 °F 1011.7 in Calm     73 % 0.0 in 0.0 W/m2 CLR
01:08 21.8 °F 16.7 °F 1011.7 in Calm     73 % 0.0 in 0.0 W/m2 CLR
01:13 21.7 °F 16.8 °F 1011.7 in Calm     74 % 0.0 in 0.0 W/m2 CLR
01:18 21.6 °F 16.8 °F 1011.7 in Calm     74 % 0.0 in 0.0 W/m2 CLR
01:23 21.6 °F 16.7 °F 1011.7 in Calm     74 % 0.0 in 0.0 W/m2 CLR
01:28 21.4 °F 16.8 °F 1011.4 in Calm     75 % 0.0 in 0.0 W/m2 CLR
01:33 21.3 °F 16.9 °F 1011.4 in Calm     76 % 0.0 in 0.0 W/m2 CLR
01:38 21.3 °F 16.7 °F 1011.4 in Calm     75 % 0.0 in 0.0 W/m2 CLR
01:43 21.8 °F 16.6 °F 1011.4 in Calm     72 % 0.0 in 0.0 W/m2 CLR
01:48 22.3 °F 16.6 °F 1011.4 in Calm     70 % 0.0 in 0.0 W/m2 CLR
01:53 22.4 °F 16.9 °F 1011.4 in Calm     71 % 0.0 in 0.0 W/m2 CLR
01:58 22.3 °F 16.8 °F 1011.4 in Calm     71 % 0.0 in 0.0 W/m2 CLR
02:04 22.2 °F 16.5 °F 1011.4 in Calm     70 % 0.0 in 0.0 W/m2 CLR
02:09 22.3 °F 16.6 °F 1011.4 in Calm     70 % 0.0 in 0.0 W/m2 CLR
02:14 22.3 °F 16.8 °F 1011.4 in Calm     71 % 0.0 in 0.0 W/m2 CLR
02:19 22.0 °F 16.7 °F 1011.4 in Calm     72 % 0.0 in 0.0 W/m2 CLR
02:24 21.7 °F 16.6 °F 1011.4 in Calm     73 % 0.0 in 0.0 W/m2 CLR
02:29 21.5 °F 16.4 °F 1011.4 in Calm     73 % 0.0 in 0.0 W/m2 CLR
02:34 21.3 °F 16.5 °F 1011.4 in Calm     74 % 0.0 in 0.0 W/m2 CLR
02:39 21.2 °F 16.8 °F 1011.1 in Calm     76 % 0.0 in 0.0 W/m2 CLR
02:44 21.1 °F 16.4 °F 1011.1 in Calm     75 % 0.0 in 0.0 W/m2 CLR
02:49 21.3 °F 16.5 °F 1011.1 in Calm     74 % 0.0 in 0.0 W/m2 CLR
02:54 21.4 °F 16.6 °F 1011.1 in Calm     74 % 0.0 in 0.0 W/m2 CLR
02:59 21.3 °F 16.5 °F 1011.1 in Calm     74 % 0.0 in 0.0 W/m2 CLR
03:04 21.3 °F 16.7 °F 1011.1 in Calm     75 % 0.0 in 0.0 W/m2 CLR
03:09 21.2 °F 16.8 °F 1011.1 in Calm     76 % 0.0 in 0.0 W/m2 CLR
03:14 21.2 °F 16.4 °F 1011.1 in Calm     74 % 0.0 in 0.0 W/m2 CLR
03:19 21.3 °F 16.5 °F 1010.7 in Calm     74 % 0.0 in 0.0 W/m2 CLR
03:24 21.3 °F 16.5 °F 1010.7 in Calm     74 % 0.0 in 0.0 W/m2 CLR
03:29 21.3 °F 16.5 °F 1010.7 in Calm     74 % 0.0 in 0.0 W/m2 CLR
03:34 21.3 °F 16.4 °F 1010.7 in Calm     74 % 0.0 in 0.0 W/m2 CLR
03:39 21.3 °F 16.3 °F 1010.7 in Calm     73 % 0.0 in 0.0 W/m2 CLR
03:44 21.4 °F 16.6 °F 1010.7 in Calm     74 % 0.0 in 0.0 W/m2 CLR
03:49 21.5 °F 16.4 °F 1010.7 in Calm     73 % 0.0 in 0.0 W/m2 CLR
03:54 21.5 °F 16.7 °F 1010.7 in Calm     74 % 0.0 in 0.0 W/m2 CLR
03:59 21.4 °F 16.8 °F 1010.7 in Calm     75 % 0.0 in 0.0 W/m2 CLR
04:04 21.2 °F 16.6 °F 1010.7 in Calm     75 % 0.0 in 0.0 W/m2 CLR
04:09 20.9 °F 16.6 °F 1010.7 in Calm     76 % 0.0 in 0.0 W/m2 CLR
04:14 20.8 °F 16.4 °F 1010.7 in Calm     76 % 0.0 in 0.0 W/m2 CLR
04:19 20.7 °F 16.3 °F 1010.7 in Calm     76 % 0.0 in 0.0 W/m2 CLR
04:24 20.5 °F 16.3 °F 1010.7 in Calm     77 % 0.0 in 0.0 W/m2 CLR
04:29 20.4 °F 16.2 °F 1010.7 in Calm     77 % 0.0 in 0.0 W/m2 CLR
04:34 20.4 °F 16.1 °F 1010.4 in Calm     76 % 0.0 in 0.0 W/m2 CLR
04:39 20.6 °F 16.2 °F 1010.7 in Calm     76 % 0.0 in 0.0 W/m2 CLR
04:44 20.6 °F 16.6 °F 1010.4 in Calm     78 % 0.0 in 0.0 W/m2 CLR
04:49 20.4 °F 16.6 °F 1010.4 in Calm     79 % 0.0 in 0.0 W/m2 CLR
04:54 20.2 °F 16.6 °F 1010.4 in Calm     80 % 0.0 in 0.0 W/m2 CLR
04:55 20.1 °F 16.6 °F 1010.4 in Calm     80 % 0.0 in 0.0 W/m2 CLR
05:00 20.1 °F 16.7 °F 1010.4 in Calm     81 % 0.0 in 0.0 W/m2 CLR
05:05 20.1 °F 16.7 °F 1010.4 in Calm     81 % 0.0 in 0.0 W/m2 CLR
05:10 20.0 °F 16.4 °F 1010.4 in Calm     80 % 0.0 in 0.0 W/m2 CLR
05:15 19.9 °F 16.6 °F 1010.4 in Calm     81 % 0.0 in 0.0 W/m2 CLR
05:16 19.9 °F 16.6 °F 1010.4 in Calm     81 % 0.0 in 0.0 W/m2 CLR
05:21 19.8 °F 16.5 °F 1010.7 in Calm     81 % 0.0 in 0.0 W/m2 CLR
05:26 19.8 °F 16.5 °F 1010.7 in Calm     81 % 0.0 in 0.0 W/m2 CLR
05:31 19.8 °F 16.6 °F 1010.7 in Calm     82 % 0.0 in 0.0 W/m2 CLR
05:36 19.7 °F 16.6 °F 1010.7 in Calm     82 % 0.0 in 0.0 W/m2 CLR
05:41 19.6 °F 16.4 °F 1011.1 in NNW 6.4 mph 6.4 mph 82 % 0.0 in 0.0 W/m2 CLR
05:46 20.1 °F 16.3 °F 1011.1 in NW 14.8 mph 14.8 mph 79 % 0.0 in 0.0 W/m2 CLR
05:51 21.0 °F 16.6 °F 1011.4 in NW 14.8 mph 14.8 mph 76 % 0.0 in 0.0 W/m2 CLR
05:56 21.4 °F 16.8 °F 1011.4 in NW 18.5 mph 18.5 mph 75 % 0.0 in 0.0 W/m2 CLR
06:06 21.2 °F 16.8 °F 1011.4 in NW 14.8 mph 14.8 mph 76 % 0.0 in 0.0 W/m2 CLR
06:11 20.9 °F 16.7 °F 1011.7 in WNW 17.7 mph 17.7 mph 77 % 0.0 in 0.0 W/m2 CLR
06:16 20.7 °F 16.5 °F 1011.7 in WNW 13.0 mph 13.0 mph 77 % 0.0 in 0.0 W/m2 CLR
06:21 20.5 °F 16.3 °F 1011.7 in NW 13.0 mph 13.0 mph 77 % 0.0 in 0.0 W/m2 CLR
06:26 20.3 °F 16.4 °F 1012.1 in West 7.4 mph 7.4 mph 78 % 0.0 in 0.0 W/m2 OVC
06:31 20.3 °F 16.3 °F 1012.1 in WNW 5.6 mph 5.6 mph 78 % 0.0 in 0.0 W/m2 OVC
06:36 20.2 °F 16.3 °F 1012.1 in West 9.3 mph 9.3 mph 78 % 0.0 in 0.0 W/m2 OVC
06:41 20.2 °F 16.3 °F 1012.1 in West 11.1 mph 11.1 mph 78 % 0.0 in 5.0 W/m2 OVC
06:46 20.2 °F 16.3 °F 1012.1 in West 9.3 mph 9.3 mph 78 % 0.0 in 7.0 W/m2 BKN
06:51 20.2 °F 16.3 °F 1012.1 in WNW 9.7 mph 9.7 mph 78 % 0.0 in 11.0 W/m2 BKN
06:56 20.1 °F 16.2 °F 1012.1 in WSW 7.4 mph 7.4 mph 78 % 0.0 in 14.0 W/m2 BKN
07:01 20.1 °F 16.2 °F 1012.4 in Calm     78 % 0.0 in 18.0 W/m2 BKN
07:06 20.1 °F 16.2 °F 1012.4 in Calm     78 % 0.0 in 23.0 W/m2 BKN
07:11 20.1 °F 16.3 °F 1012.4 in Calm     79 % 0.0 in 26.0 W/m2 BKN
07:16 19.9 °F 16.4 °F 1012.4 in Calm     80 % 0.0 in 32.0 W/m2 BKN
07:21 19.9 °F 16.2 °F 1012.4 in Calm     79 % 0.0 in 42.0 W/m2 BKN
07:26 19.9 °F 16.2 °F 1012.4 in Calm     79 % 0.0 in 54.0 W/m2 SCT
07:31 20.1 °F 16.3 °F 1012.4 in Calm     79 % 0.0 in 62.0 W/m2 SCT
07:36 20.2 °F 16.4 °F 1012.8 in Calm     79 % 0.0 in 72.0 W/m2 FEW
07:41 20.2 °F 16.3 °F 1012.8 in Calm     78 % 0.0 in 84.0 W/m2 FEW
07:46 20.4 °F 16.4 °F 1012.8 in Calm     78 % 0.0 in 98.0 W/m2 FEW
07:51 20.5 °F 16.6 °F 1012.8 in Calm     78 % 0.0 in 111.0 W/m2 CLR
07:56 20.6 °F 16.4 °F 1012.8 in Calm     77 % 0.0 in 125.0 W/m2 CLR
08:01 20.8 °F 16.6 °F 1012.8 in Calm     77 % 0.0 in 144.0 W/m2 CLR
08:06 20.9 °F 16.6 °F 1012.8 in Calm     76 % 0.0 in 156.0 W/m2 CLR
08:11 21.1 °F 16.7 °F 1013.1 in Calm     76 % 0.0 in 178.0 W/m2 CLR
08:16 21.2 °F 16.6 °F 1013.1 in Calm     75 % 0.0 in 193.0 W/m2 CLR
08:21 21.3 °F 16.7 °F 1012.8 in Calm     75 % 0.0 in 209.0 W/m2 CLR
08:26 21.4 °F 16.8 °F 1012.8 in NW 9.3 mph 9.3 mph 75 % 0.0 in 225.0 W/m2 CLR
08:31 21.5 °F 16.7 °F 1012.8 in NNW 9.7 mph 9.7 mph 74 % 0.0 in 241.0 W/m2 CLR
08:36 21.6 °F 16.9 °F 1012.8 in NW 3.2 mph 3.2 mph 75 % 0.0 in 255.0 W/m2 CLR
08:41 21.7 °F 16.8 °F 1012.8 in NW 5.6 mph 5.6 mph 74 % 0.0 in 269.0 W/m2 CLR
08:46 21.8 °F 16.8 °F 1012.8 in Calm     73 % 0.0 in 281.0 W/m2 CLR
08:51 22.1 °F 17.0 °F 1013.1 in NNW 1.6 mph 1.6 mph 73 % 0.0 in 295.0 W/m2 CLR
08:56 22.2 °F 16.9 °F 1013.1 in Calm     72 % 0.0 in 311.0 W/m2 CLR
09:01 22.4 °F 17.2 °F 1012.8 in Calm   0.3 mph 72 % 0.0 in 330.0 W/m2 CLR
09:06 22.5 °F 17.0 °F 1013.1 in Calm     71 % 0.0 in 345.0 W/m2 CLR
09:11 22.7 °F 16.9 °F 1013.1 in Calm     70 % 0.0 in 357.0 W/m2 CLR
09:16 22.9 °F 17.2 °F 1013.1 in Calm     70 % 0.0 in 373.0 W/m2 CLR
09:21 23.1 °F 17.1 °F 1013.1 in Calm     69 % 0.0 in 390.0 W/m2 CLR
09:26 23.3 °F 17.1 °F 1013.1 in Calm     68 % 0.0 in 404.0 W/m2 CLR
09:31 23.6 °F 17.3 °F 1013.1 in Calm     68 % 0.0 in 425.0 W/m2 CLR
09:36 24.0 °F 17.5 °F 1013.1 in Calm     67 % 0.0 in 438.0 W/m2 CLR
09:41 24.3 °F 17.5 °F 1013.1 in ENE 1.9 mph 1.9 mph 66 % 0.0 in 454.0 W/m2 CLR
09:46 24.3 °F 17.3 °F 1013.1 in Calm     65 % 0.0 in 471.0 W/m2 CLR
09:51 24.2 °F 17.4 °F 1013.1 in Calm     66 % 0.0 in 489.0 W/m2 CLR
09:56 24.1 °F 17.3 °F 1013.1 in WNW 1.9 mph   66 % 0.0 in 508.0 W/m2 CLR
10:01 24.3 °F 17.6 °F 1013.1 in Calm     66 % 0.0 in 524.0 W/m2 CLR
10:07 24.6 °F 17.8 °F 1013.1 in Calm     66 % 0.0 in 536.0 W/m2 CLR
10:12 24.7 °F 17.7 °F 1013.1 in ENE 5.6 mph   65 % 0.0 in 543.0 W/m2 CLR
10:17 24.9 °F 17.6 °F 1013.1 in ENE 5.6 mph 5.6 mph 64 % 0.0 in 557.0 W/m2 CLR
10:22 25.1 °F 17.5 °F 1012.8 in Calm     63 % 0.0 in 564.0 W/m2 CLR
10:27 25.2 °F 17.4 °F 1013.1 in Calm     62 % 0.0 in 599.0 W/m2 CLR
10:32 25.2 °F 17.6 °F 1013.1 in Calm     63 % 0.0 in 629.0 W/m2 CLR
10:37 25.1 °F 17.6 °F 1013.1 in ENE 5.6 mph 5.6 mph 63 % 0.0 in 371.0 W/m2 CLR
10:42 25.2 °F 17.4 °F 1013.1 in Calm     62 % 0.0 in 659.0 W/m2 CLR
10:47 25.3 °F 17.5 °F 1013.1 in Calm     62 % 0.0 in 664.0 W/m2 CLR
10:52 25.5 °F 17.7 °F 1013.1 in Calm     62 % 0.0 in 673.0 W/m2 CLR
10:57 25.8 °F 17.7 °F 1013.1 in Calm     61 % 0.0 in 729.0 W/m2 CLR
11:02 25.9 °F 17.6 °F 1012.8 in East 5.6 mph 5.6 mph 60 % 0.0 in 752.0 W/m2 CLR
11:07 26.0 °F 17.9 °F 1012.8 in Calm     61 % 0.0 in 798.0 W/m2 CLR
11:12 26.1 °F 17.7 °F 1012.8 in Calm     60 % 0.0 in 740.0 W/m2 CLR
11:17 26.2 °F 17.8 °F 1012.8 in Calm     60 % 0.0 in 710.0 W/m2 CLR
11:22 26.2 °F 18.1 °F 1012.8 in Calm     61 % 0.0 in 772.0 W/m2 CLR
11:27 26.5 °F 17.8 °F 1012.8 in East 7.4 mph 7.4 mph 59 % 0.0 in 763.0 W/m2 CLR
11:32 26.6 °F 17.9 °F 1012.8 in Calm     59 % 0.0 in 775.0 W/m2 CLR
11:37 26.5 °F 17.6 °F 1012.8 in SSE 1.9 mph   58 % 0.0 in 768.0 W/m2 CLR
11:42 26.8 °F 18.6 °F 1012.8 in Calm     61 % 0.0 in 791.0 W/m2 CLR
11:47 26.9 °F 18.0 °F 1012.8 in Calm     58 % 0.0 in 803.0 W/m2 CLR
11:52 27.1 °F 17.8 °F 1012.8 in Calm     57 % 0.0 in 817.0 W/m2 CLR
11:57 27.3 °F 17.8 °F 1012.8 in Calm     56 % 0.0 in 816.0 W/m2 CLR
11:59 27.3 °F 17.7 °F 1012.8 in Calm     56 % 0.0 in 810.0 W/m2 CLR
12:04 27.3 °F 18.0 °F 1012.8 in NW 1.9 mph 1.9 mph 57 % 0.0 in 826.0 W/m2 CLR
12:09 27.5 °F 18.5 °F 1012.8 in NNE 9.3 mph 9.3 mph 58 % 0.0 in 840.0 W/m2 CLR
12:14 27.6 °F 18.3 °F 1012.4 in Calm     57 % 0.0 in 826.0 W/m2 CLR
12:19 27.7 °F 18.4 °F 1012.4 in Calm     57 % 0.0 in 831.0 W/m2 CLR
12:24 27.9 °F 18.6 °F 1012.4 in Calm     57 % 0.0 in 833.0 W/m2 CLR
12:29 28.1 °F 18.2 °F 1012.4 in North 9.3 mph 9.3 mph 55 % 0.0 in 838.0 W/m2 CLR
12:34 28.1 °F 18.4 °F 1012.4 in Calm     56 % 0.0 in 846.0 W/m2 CLR
12:36 28.1 °F 18.4 °F 1012.4 in Calm     56 % 0.0 in 847.0 W/m2 CLR
12:41 28.3 °F 19.3 °F 1012.4 in ENE 9.3 mph 9.3 mph 58 % 0.0 in 854.0 W/m2 CLR
12:46 28.6 °F 19.0 °F 1012.4 in East 14.8 mph 14.8 mph 56 % 0.0 in 861.0 W/m2 CLR
12:51 28.6 °F 18.7 °F 1012.4 in ENE 9.3 mph 9.3 mph 55 % 0.0 in 860.0 W/m2 CLR
12:56 28.7 °F 19.0 °F 1012.1 in East 6.4 mph 6.4 mph 56 % 0.0 in 872.0 W/m2 CLR
13:01 28.8 °F 19.4 °F 1012.1 in East 11.1 mph 11.1 mph 57 % 0.0 in 874.0 W/m2 CLR
13:06 29.1 °F 19.1 °F 1012.1 in NNE 13.0 mph 13.0 mph 55 % 0.0 in 877.0 W/m2 CLR
13:11 29.0 °F 19.3 °F 1012.1 in NE 5.6 mph   56 % 0.0 in 881.0 W/m2 CLR
13:16 29.3 °F 19.3 °F 1012.1 in ENE 14.8 mph 14.8 mph 55 % 0.0 in 886.0 W/m2 CLR
13:21 29.3 °F 19.0 °F 1012.1 in NNE 7.4 mph 7.4 mph 54 % 0.0 in 889.0 W/m2 CLR
13:26 29.2 °F 19.6 °F 1012.1 in NW 9.3 mph 9.3 mph 56 % 0.0 in 889.0 W/m2 CLR
13:31 29.4 °F 19.4 °F 1012.1 in ENE 13.0 mph 13.0 mph 55 % 0.0 in 895.0 W/m2 CLR
13:34 29.4 °F 19.1 °F 1011.7 in NNW 9.3 mph 9.3 mph 54 % 0.0 in 898.0 W/m2 CLR
13:39 29.5 °F 19.2 °F 1011.7 in Calm     54 % 0.0 in 902.0 W/m2 CLR
13:44 29.7 °F 19.4 °F 1011.7 in North 7.4 mph 7.4 mph 54 % 0.0 in 902.0 W/m2 CLR
13:49 29.9 °F 19.6 °F 1011.7 in North 1.9 mph 1.9 mph 54 % 0.0 in 905.0 W/m2 CLR
13:54 30.0 °F 19.4 °F 1011.4 in NNE 16.7 mph 16.7 mph 53 % 0.0 in 904.0 W/m2 CLR
13:59 29.8 °F 19.5 °F 1011.4 in NNE 13.0 mph 13.0 mph 54 % 0.0 in 902.0 W/m2 CLR
14:04 30.2 °F 19.6 °F 1011.1 in NNE 13.0 mph 13.0 mph 53 % 0.0 in 907.0 W/m2 CLR
14:09 30.3 °F 19.4 °F 1011.4 in North 14.8 mph 14.8 mph 52 % 0.0 in 902.0 W/m2 CLR
14:14 30.3 °F 19.7 °F 1011.1 in NNE 11.1 mph 11.1 mph 53 % 0.0 in 898.0 W/m2 CLR
14:19 30.6 °F 19.6 °F 1011.1 in NNE 13.0 mph 13.0 mph 52 % 0.0 in 900.0 W/m2 CLR
14:24 30.9 °F 19.9 °F 1011.1 in NE 14.8 mph 14.8 mph 52 % 0.0 in 902.0 W/m2 CLR
14:29 31.1 °F 19.8 °F 1011.1 in North 18.5 mph 18.5 mph 51 % 0.0 in 909.0 W/m2 CLR
14:34 31.1 °F 19.8 °F 1011.1 in ENE 22.2 mph 22.2 mph 51 % 0.0 in 904.0 W/m2 CLR
14:39 31.1 °F 19.8 °F 1010.7 in NNE 13.0 mph 13.0 mph 51 % 0.0 in 900.0 W/m2 CLR
14:44 31.2 °F 20.2 °F 1010.7 in North 11.3 mph 11.3 mph 52 % 0.0 in 895.0 W/m2 CLR
14:49 31.3 °F 20.2 °F 1010.7 in NNE 20.4 mph 20.4 mph 52 % 0.0 in 921.0 W/m2 CLR
14:54 31.4 °F 20.1 °F 1010.4 in NNE 22.2 mph 22.2 mph 51 % 0.0 in 923.0 W/m2 CLR
14:59 31.3 °F 20.2 °F 1010.4 in NE 18.5 mph 18.5 mph 52 % 0.0 in 925.0 W/m2 CLR
15:04 31.5 °F 20.4 °F 1010.4 in NNE 11.3 mph 11.3 mph 52 % 0.0 in 907.0 W/m2 CLR
15:09 31.5 °F 20.1 °F 1010.4 in North 18.5 mph 18.5 mph 51 % 0.0 in 940.0 W/m2 CLR
15:14 31.0 °F 20.0 °F 1010.4 in North 18.5 mph 18.5 mph 52 % 0.0 in 216.0 W/m2 CLR
15:19 31.0 °F 20.3 °F 1010.4 in NNE 18.5 mph 18.5 mph 53 % 0.0 in 257.0 W/m2 CLR
15:24 31.4 °F 20.7 °F 1010.0 in North 14.8 mph 14.8 mph 53 % 0.0 in 895.0 W/m2 CLR
15:29 31.6 °F 20.2 °F 1010.0 in NE 11.1 mph 11.1 mph 51 % 0.0 in 868.0 W/m2 CLR
15:34 31.9 °F 20.5 °F 1010.0 in NE 16.7 mph 16.7 mph 51 % 0.0 in 872.0 W/m2 CLR
15:39 32.1 °F 20.7 °F 1010.0 in NE 11.1 mph 11.1 mph 51 % 0.0 in 874.0 W/m2 CLR
15:44 32.2 °F 20.5 °F 1010.0 in ENE 13.0 mph 13.0 mph 50 % 0.0 in 902.0 W/m2 CLR
15:49 32.0 °F 20.3 °F 1010.0 in NE 18.5 mph 18.5 mph 50 % 0.0 in 267.0 W/m2 CLR
15:54 32.0 °F 20.6 °F 1010.0 in East 7.4 mph 7.4 mph 51 % 0.0 in 810.0 W/m2 CLR
15:59 32.1 °F 20.7 °F 1009.7 in ENE 18.5 mph 18.5 mph 51 % 0.0 in 805.0 W/m2 CLR
16:05 32.1 °F 20.7 °F 1009.7 in East 9.7 mph 9.7 mph 51 % 0.0 in 728.0 W/m2 CLR
16:10 31.9 °F 20.6 °F 1009.7 in ENE 3.7 mph 3.7 mph 51 % 0.0 in 802.0 W/m2 CLR
16:15 32.2 °F 20.8 °F 1009.7 in East 6.4 mph 6.4 mph 51 % 0.0 in 805.0 W/m2 CLR
16:20 32.2 °F 20.8 °F 1009.7 in ENE 14.8 mph 14.8 mph 51 % 0.0 in 860.0 W/m2 CLR
16:25 32.0 °F 20.6 °F 1009.7 in ENE 14.8 mph 14.8 mph 51 % 0.0 in 318.0 W/m2 CLR
16:30 31.6 °F 20.8 °F 1009.7 in ENE 12.9 mph 12.9 mph 53 % 0.0 in 322.0 W/m2 CLR
16:35 31.6 °F 20.8 °F 1009.4 in East 16.1 mph 16.1 mph 53 % 0.0 in 740.0 W/m2 CLR
16:40 31.6 °F 20.8 °F 1009.7 in ESE 9.7 mph 9.7 mph 53 % 0.0 in 737.0 W/m2 CLR
16:45 31.6 °F 20.9 °F 1009.4 in East 16.7 mph 16.7 mph 53 % 0.0 in 724.0 W/m2 CLR
16:50 31.5 °F 20.8 °F 1009.4 in ENE 22.2 mph 22.2 mph 53 % 0.0 in 708.0 W/m2 CLR
16:55 31.6 °F 20.8 °F 1009.4 in East 14.8 mph 14.8 mph 53 % 0.0 in 693.0 W/m2 CLR
17:00 31.3 °F 20.8 °F 1009.4 in ESE 20.9 mph 20.9 mph 54 % 0.0 in 693.0 W/m2 CLR
17:05 31.1 °F 21.0 °F 1009.4 in ENE 11.3 mph 11.3 mph 55 % 0.0 in 673.0 W/m2 CLR
17:10 31.3 °F 20.8 °F 1009.4 in East 11.1 mph 11.1 mph 54 % 0.0 in 666.0 W/m2 CLR
17:15 31.3 °F 21.2 °F 1009.4 in East 13.0 mph 13.0 mph 55 % 0.0 in 682.0 W/m2 CLR
17:20 31.0 °F 20.9 °F 1009.4 in ENE 24.1 mph 24.1 mph 55 % 0.0 in 334.0 W/m2 CLR
17:25 30.7 °F 20.9 °F 1009.4 in ESE 14.8 mph 14.8 mph 56 % 0.0 in 675.0 W/m2 CLR
17:30 30.8 °F 20.7 °F 1009.4 in ESE 19.3 mph 19.3 mph 55 % 0.0 in 647.0 W/m2 CLR
17:35 30.5 °F 20.7 °F 1009.4 in East 18.5 mph 18.5 mph 56 % 0.0 in 262.0 W/m2 CLR
17:40 30.7 °F 21.2 °F 1009.0 in East 9.7 mph 9.7 mph 57 % 0.0 in 657.0 W/m2 CLR
17:45 31.0 °F 21.2 °F 1009.0 in NE 20.4 mph 20.4 mph 56 % 0.0 in 606.0 W/m2 CLR
17:50 30.9 °F 21.2 °F 1009.4 in ESE 18.5 mph 18.5 mph 56 % 0.0 in 605.0 W/m2 CLR
17:55 30.4 °F 20.3 °F 1009.4 in SE 24.1 mph 24.1 mph 55 % 0.0 in 636.0 W/m2 CLR
18:00 29.9 °F 20.2 °F 1009.4 in ESE 18.5 mph 18.5 mph 56 % 0.0 in 251.0 W/m2 CLR
18:05 30.0 °F 20.3 °F 1009.4 in ESE 11.1 mph 11.1 mph 56 % 0.0 in 693.0 W/m2 CLR
18:10 30.3 °F 19.9 °F 1009.7 in ESE 18.5 mph 18.5 mph 54 % 0.0 in 592.0 W/m2 CLR
18:15 30.0 °F 20.0 °F 1009.7 in SE 27.8 mph 27.8 mph 55 % 0.0 in 615.0 W/m2 CLR
18:20 29.4 °F 20.0 °F 1009.7 in ESE 20.4 mph 20.4 mph 57 % 0.0 in 626.0 W/m2 CLR
18:25 29.5 °F 20.4 °F 1009.7 in SE 18.5 mph 18.5 mph 58 % 0.0 in 251.0 W/m2 CLR
18:31 29.2 °F 20.1 °F 1009.7 in ESE 24.1 mph 24.1 mph 58 % 0.0 in 548.0 W/m2 CLR
18:36 29.0 °F 19.9 °F 1009.7 in SE 22.2 mph 22.2 mph 58 % 0.0 in 526.0 W/m2 CLR
18:41 28.7 °F 19.7 °F 1010.0 in SSE 18.5 mph 18.5 mph 58 % 0.0 in 146.0 W/m2 CLR
18:46 28.4 °F 19.7 °F 1010.7 in South 12.9 mph 12.9 mph 59 % 0.0 in 44.0 W/m2 CLR
18:51 28.1 °F 19.6 °F 1010.4 in South 29.6 mph 29.6 mph 60 % 0.0 in 188.0 W/m2 FEW
18:56 27.8 °F 19.6 °F 1010.0 in SE 22.2 mph 22.2 mph 61 % 0.0 in 589.0 W/m2 FEW
19:01 27.7 °F 19.8 °F 1010.0 in SSE 18.5 mph 18.5 mph 62 % 0.0 in 308.0 W/m2 CLR
19:06 27.3 °F 19.7 °F 1010.0 in SSE 11.1 mph 11.1 mph 63 % 0.0 in 485.0 W/m2 CLR
19:11 27.3 °F 19.3 °F 1010.0 in South 14.8 mph 14.8 mph 62 % 0.0 in 441.0 W/m2 CLR
19:16 26.9 °F 18.5 °F 1010.4 in South 20.4 mph 20.4 mph 60 % 0.0 in 439.0 W/m2 CLR
19:21 27.0 °F 19.1 °F 1010.4 in SSE 29.6 mph 29.6 mph 62 % 0.0 in 418.0 W/m2 CLR
19:26 26.8 °F 20.1 °F 1010.4 in SE 25.9 mph 25.9 mph 67 % 0.0 in 378.0 W/m2 CLR
19:31 26.2 °F 20.1 °F 1010.4 in SE 17.7 mph 17.7 mph 69 % 0.0 in 155.0 W/m2 CLR
19:36 26.2 °F 20.3 °F 1011.1 in SSE 20.4 mph 20.4 mph 70 % 0.0 in 214.0 W/m2 CLR
19:41 26.1 °F 20.4 °F 1011.1 in SSE 18.5 mph 18.5 mph 71 % 0.0 in 327.0 W/m2 CLR
19:46 26.1 °F 20.7 °F 1010.7 in ESE 16.7 mph 16.7 mph 72 % 0.0 in 158.0 W/m2 CLR
19:51 26.0 °F 20.8 °F 1010.4 in ESE 14.8 mph 14.8 mph 73 % 0.0 in 223.0 W/m2 CLR
19:56 25.8 °F 20.8 °F 1010.4 in Calm     74 % 0.0 in 207.0 W/m2 CLR
20:01 25.7 °F 20.7 °F 1010.4 in SSE 13.0 mph 13.0 mph 74 % 0.0 in 123.0 W/m2 CLR
20:06 25.7 °F 20.5 °F 1010.4 in South 18.5 mph 18.5 mph 73 % 0.0 in 181.0 W/m2 CLR
20:11 25.7 °F 20.5 °F 1010.4 in South 14.8 mph 14.8 mph 73 % 0.0 in 167.0 W/m2 CLR
20:16 25.8 °F 20.8 °F 1010.4 in SSE 9.3 mph 9.3 mph 74 % 0.0 in 146.0 W/m2 CLR
20:21 25.7 °F 20.5 °F 1010.4 in SSE 14.8 mph 14.8 mph 73 % 0.0 in 123.0 W/m2 CLR
20:26 25.6 °F 20.4 °F 1010.4 in South 19.3 mph 19.3 mph 73 % 0.0 in 114.0 W/m2 CLR
20:31 25.4 °F 20.4 °F 1010.4 in SSW 5.6 mph 5.6 mph 74 % 0.0 in 90.0 W/m2 CLR
20:36 25.5 °F 20.7 °F 1010.4 in Calm     75 % 0.0 in 70.0 W/m2 FEW
20:41 25.5 °F 20.5 °F 1010.7 in Calm     74 % 0.0 in 58.0 W/m2 SCT
20:46 25.5 °F 20.7 °F 1010.7 in SSW 11.1 mph 11.1 mph 75 % 0.0 in 44.0 W/m2 SCT
20:51 25.4 °F 20.7 °F 1011.1 in South 5.6 mph 5.6 mph 75 % 0.0 in 35.0 W/m2 BKN
20:52 25.4 °F 20.7 °F 1011.1 in South 9.7 mph 9.7 mph 75 % 0.0 in 32.0 W/m2 BKN
20:57 25.3 °F 20.6 °F 1011.1 in South 5.6 mph   75 % 0.0 in 23.0 W/m2 BKN
20:59 25.3 °F 20.5 °F 1011.1 in SSE 3.2 mph   75 % 0.0 in 19.0 W/m2 BKN
21:02 25.2 °F 20.7 °F 1011.1 in South 9.3 mph 9.3 mph 76 % 0.0 in 16.0 W/m2 BKN
21:08 25.1 °F 20.5 °F 1011.1 in Calm     76 % 0.0 in 11.0 W/m2 BKN
21:13 25.0 °F 20.5 °F 1011.1 in Calm     76 % 0.0 in 9.0 W/m2 BKN
21:18 24.8 °F 20.3 °F 1011.1 in South 7.4 mph 7.4 mph 76 % 0.0 in 9.0 W/m2 BKN
21:23 24.8 °F 20.4 °F 1011.1 in Calm     77 % 0.0 in 7.0 W/m2 BKN
21:28 24.7 °F 20.4 °F 1011.4 in Calm     77 % 0.0 in 0.0 W/m2 OVC
21:33 24.7 °F 20.6 °F 1011.1 in Calm     78 % 0.0 in 0.0 W/m2 OVC
21:38 24.6 °F 20.5 °F 1011.4 in Calm     78 % 0.0 in 0.0 W/m2 OVC
21:43 24.5 °F 20.6 °F 1011.4 in Calm     79 % 0.0 in 0.0 W/m2 OVC
21:48 24.4 °F 20.6 °F 1011.4 in Calm     79 % 0.0 in 0.0 W/m2 CLR
21:53 24.4 °F 20.5 °F 1011.4 in Calm     79 % 0.0 in 0.0 W/m2 CLR
21:58 24.3 °F 20.7 °F 1011.7 in Calm     80 % 0.0 in 0.0 W/m2 CLR
22:03 24.3 °F 20.6 °F 1011.7 in Calm     80 % 0.0 in 0.0 W/m2 CLR
22:08 24.2 °F 20.6 °F 1011.7 in Calm     80 % 0.0 in 0.0 W/m2 CLR
22:13 24.2 °F 20.6 °F 1011.7 in Calm     80 % 0.0 in 0.0 W/m2 CLR
22:18 24.1 °F 20.4 °F 1012.1 in Calm     80 % 0.0 in 0.0 W/m2 CLR
22:23 24.1 °F 20.4 °F 1012.1 in Calm     80 % 0.0 in 0.0 W/m2 CLR
22:28 24.0 °F 20.3 °F 1012.1 in SW 3.7 mph   80 % 0.0 in 0.0 W/m2 CLR
22:33 24.0 °F 20.3 °F 1012.4 in West 5.6 mph 5.6 mph 80 % 0.0 in 0.0 W/m2 CLR
22:38 23.9 °F 20.5 °F 1012.4 in Calm     81 % 0.0 in 0.0 W/m2 CLR
22:43 23.8 °F 20.4 °F 1012.4 in Calm     81 % 0.0 in 0.0 W/m2 CLR
22:48 23.7 °F 20.3 °F 1012.4 in Calm     81 % 0.0 in 0.0 W/m2 CLR
22:53 23.7 °F 20.2 °F 1012.8 in Calm     81 % 0.0 in 0.0 W/m2 CLR
22:58 23.6 °F 19.3 °F 1012.8 in West 5.6 mph 5.6 mph 77 % 0.0 in 0.0 W/m2 CLR
23:03 23.7 °F 18.2 °F 1013.1 in WNW 14.8 mph 14.8 mph 71 % 0.0 in 0.0 W/m2 CLR
23:08 24.0 °F 17.7 °F 1013.1 in WNW 14.8 mph 14.8 mph 68 % 0.0 in 0.0 W/m2 CLR
23:13 24.1 °F 17.6 °F 1013.1 in WNW 13.0 mph 13.0 mph 67 % 0.0 in 0.0 W/m2 CLR
23:18 24.1 °F 17.6 °F 1013.1 in WNW 11.1 mph 11.1 mph 67 % 0.0 in 0.0 W/m2 CLR
23:23 24.1 °F 17.3 °F 1013.4 in West 5.6 mph 5.6 mph 66 % 0.0 in 0.0 W/m2 CLR
23:28 24.1 °F 17.3 °F 1013.4 in WNW 11.1 mph 11.1 mph 66 % 0.0 in 0.0 W/m2 CLR
23:33 24.0 °F 17.3 °F 1013.4 in WNW 9.3 mph 9.3 mph 66 % 0.0 in 0.0 W/m2 CLR
23:38 23.9 °F 17.2 °F 1013.4 in WNW 14.8 mph 14.8 mph 66 % 0.0 in 0.0 W/m2 CLR
23:43 23.8 °F 16.8 °F 1013.4 in NW 18.5 mph 18.5 mph 65 % 0.0 in 0.0 W/m2 CLR
23:48 23.7 °F 17.0 °F 1013.4 in WSW 5.6 mph   66 % 0.0 in 0.0 W/m2 CLR
23:53 23.7 °F 16.9 °F 1013.4 in WSW 5.6 mph 5.6 mph 66 % 0.0 in 0.0 W/m2 CLR
23:58 23.6 °F 16.9 °F 1013.4 in West 6.4 mph 6.4 mph 66 % 0.0 in 0.0 W/m2 CLR
Lo Temps de Massalio
Compliments of Weather Underground - 1.25 mb